Terminal Aerodrome Forecast
Issued by NWS Jackson, MS

Home | Current Version | Previous Version | Text Only | Print | Product List | Glossary On
Versions: 1 2 3 4 5 6 7 8 9 10 11 12 13 14
000
FTUS44 KJAN 261326 AAA
TAFGWO
TAF AMD
KGWO 261326Z 2613/2712 36005KT P6SM SCT015
     FM261500 36010KT P6SM FEW025
     FM270000 03008KT P6SM FEW120 BKN200=

USA.gov is the U.S. government's official web portal to all federal, state and local government web resources and services.